createdAt,value
2023-03-21T00:00:57.336Z,24.00
2023-03-21T00:02:01.154Z,22.30
2023-03-21T00:03:04.954Z,22.25
2023-03-21T00:04:08.709Z,23.10
2023-03-21T00:05:15.869Z,22.30
2023-03-21T00:06:19.811Z,24.30
2023-03-21T00:07:23.554Z,25.45
2023-03-21T00:08:28.121Z,25.58
2023-03-21T00:09:31.691Z,23.00
2023-03-21T00:11:58.994Z,22.80
2023-03-21T00:13:02.642Z,23.70
2023-03-21T00:14:06.391Z,21.45
2023-03-21T00:15:13.605Z,22.52
2023-03-21T00:16:27.447Z,20.35
2023-03-21T00:17:42.287Z,20.10
2023-03-21T00:18:47.440Z,23.25
2023-03-21T00:19:54.229Z,20.35
2023-03-21T00:21:29.326Z,22.75
2023-03-21T00:22:23.090Z,20.15
2023-03-21T00:23:27.479Z,21.67
2023-03-21T00:24:31.201Z,23.80
2023-03-21T00:25:34.950Z,20.92
2023-03-21T00:26:38.678Z,21.95
2023-03-21T00:27:57.224Z,24.02
2023-03-21T00:29:06.228Z,23.97
2023-03-21T00:30:12.986Z,23.63
2023-03-21T00:31:23.009Z,22.25
2023-03-21T00:32:26.750Z,22.20
2023-03-21T00:33:30.653Z,24.05
2023-03-21T00:34:43.587Z,26.33
2023-03-21T00:36:01.870Z,20.88
2023-03-21T00:37:06.858Z,26.58
2023-03-21T00:38:10.864Z,21.75
2023-03-21T00:39:14.525Z,21.35
2023-03-21T00:40:27.907Z,22.43
2023-03-21T00:41:42.917Z,26.08
2023-03-21T00:42:46.702Z,25.50
2023-03-21T00:43:50.492Z,24.10
2023-03-21T00:44:54.152Z,21.35
2023-03-21T00:45:59.990Z,23.87
2023-03-21T00:47:07.478Z,24.23
2023-03-21T00:48:12.050Z,21.90
2023-03-21T00:49:15.706Z,20.10
2023-03-21T00:50:19.559Z,26.00
2023-03-21T00:51:24.872Z,24.70
2023-03-21T00:52:40.316Z,22.05
2023-03-21T00:53:44.866Z,22.27
2023-03-21T00:54:48.648Z,23.85
2023-03-21T00:55:52.240Z,22.83
2023-03-21T00:56:55.929Z,22.50
2023-03-21T00:58:02.071Z,23.33
2023-03-21T00:59:06.217Z,25.25
2023-03-21T01:00:11.350Z,20.85
2023-03-21T01:01:16.655Z,23.25
2023-03-21T01:02:20.500Z,22.53
2023-03-21T01:03:25.622Z,26.88
2023-03-21T01:04:29.675Z,22.10
2023-03-21T01:05:35.656Z,25.45
2023-03-21T01:06:40.389Z,22.40
2023-03-21T01:07:44.049Z,25.27
2023-03-21T01:08:52.693Z,23.17
2023-03-21T01:09:57.092Z,24.80
2023-03-21T01:11:04.873Z,22.27
2023-03-21T01:12:08.586Z,22.33
2023-03-21T01:13:13.767Z,25.37
2023-03-21T01:14:22.944Z,24.27
2023-03-21T01:15:27.110Z,21.27
2023-03-21T01:16:33.050Z,24.77
2023-03-21T01:17:36.850Z,25.38
2023-03-21T01:18:42.334Z,23.37
2023-03-21T01:19:52.134Z,27.10
2023-03-21T01:20:57.289Z,25.00
2023-03-21T01:22:01.093Z,23.73
2023-03-21T01:23:04.838Z,23.80
2023-03-21T01:24:09.303Z,25.67
2023-03-21T01:25:22.324Z,23.80
2023-03-21T01:26:26.726Z,22.88
2023-03-21T01:27:30.404Z,24.63
2023-03-21T01:28:35.471Z,23.70
2023-03-21T01:29:39.091Z,24.33
2023-03-21T01:30:46.950Z,22.08
2023-03-21T01:31:52.377Z,22.85
2023-03-21T01:32:56.020Z,25.00
2023-03-21T01:33:59.654Z,25.05
2023-03-21T01:35:03.403Z,22.97
2023-03-21T01:36:12.985Z,21.63
2023-03-21T01:37:17.205Z,25.55
2023-03-21T01:38:20.912Z,25.30
2023-03-21T01:39:24.716Z,24.38
2023-03-21T01:40:28.717Z,23.80
2023-03-21T01:41:42.356Z,24.88
2023-03-21T01:42:47.038Z,25.08
2023-03-21T01:43:50.678Z,24.55
2023-03-21T01:44:56.606Z,21.63
2023-03-21T01:46:46.208Z,23.20
2023-03-21T01:47:54.800Z,23.20
2023-03-21T01:49:02.657Z,21.08
2023-03-21T01:50:06.792Z,24.48
2023-03-21T01:51:12.256Z,21.58
2023-03-21T01:52:33.343Z,24.17
2023-03-21T01:53:41.120Z,22.02
2023-03-21T01:54:45.547Z,22.98
2023-03-21T01:55:49.686Z,21.45
2023-03-21T01:56:55.714Z,22.98
2023-03-21T01:58:07.962Z,23.77
2023-03-21T01:59:14.761Z,22.60
2023-03-21T02:00:18.947Z,23.45
2023-03-21T02:01:23.170Z,22.98
2023-03-21T02:02:29.802Z,25.02
2023-03-21T02:03:36.428Z,23.90
2023-03-21T02:04:40.945Z,22.48
2023-03-21T02:05:55.661Z,24.67
2023-03-21T02:07:01.887Z,23.10
2023-03-21T02:08:05.609Z,24.63
2023-03-21T02:09:12.843Z,23.57
2023-03-21T02:10:18.041Z,25.92
2023-03-21T02:11:22.799Z,25.73
2023-03-21T02:12:27.309Z,24.77
2023-03-21T02:13:31.014Z,24.00
2023-03-21T02:14:37.056Z,22.93
2023-03-21T02:15:45.882Z,21.98
2023-03-21T02:16:57.264Z,21.48
2023-03-21T02:18:06.881Z,23.73
2023-03-21T02:19:41.536Z,25.92
2023-03-21T02:21:10.403Z,24.27
2023-03-21T02:22:46.884Z,21.95
2023-03-21T02:24:12.207Z,21.52
2023-03-21T02:25:59.354Z,25.02
2023-03-21T02:27:10.647Z,25.63
2023-03-21T02:28:19.746Z,23.80
2023-03-21T02:29:42.703Z,23.92
2023-03-21T02:31:23.512Z,22.08
2023-03-21T02:32:41.207Z,24.48
2023-03-21T02:34:33.991Z,22.60
2023-03-21T02:36:00.577Z,23.80
2023-03-21T02:37:18.020Z,23.58
2023-03-21T02:38:28.446Z,23.25
2023-03-21T02:39:48.874Z,26.58
2023-03-21T02:41:10.095Z,22.60
2023-03-21T02:42:22.679Z,23.50
2023-03-21T02:43:33.278Z,26.13
2023-03-21T02:44:44.919Z,27.60
2023-03-21T02:45:54.031Z,26.40
2023-03-21T02:47:06.530Z,24.05
2023-03-21T02:48:25.587Z,24.13
2023-03-21T02:49:46.348Z,28.55
2023-03-21T02:50:53.004Z,24.13
2023-03-21T02:52:08.520Z,24.92
2023-03-21T02:53:25.476Z,24.70
2023-03-21T02:54:47.012Z,22.43
2023-03-21T02:55:53.429Z,24.75
2023-03-21T02:56:59.806Z,24.92
2023-03-21T02:58:12.867Z,26.17
2023-03-21T02:59:19.181Z,22.75
2023-03-21T03:00:25.686Z,27.87
2023-03-21T03:01:29.452Z,22.67
2023-03-21T03:02:33.555Z,24.48
2023-03-21T03:03:37.282Z,24.20
2023-03-21T03:04:40.983Z,25.33
2023-03-21T03:05:49.396Z,24.93
2023-03-21T03:07:20.494Z,23.80
2023-03-21T03:08:52.904Z,23.70
2023-03-21T03:10:26.743Z,25.95
2023-03-21T03:11:33.183Z,28.67
2023-03-21T03:12:45.446Z,23.20
2023-03-21T03:14:02.100Z,24.67
2023-03-21T03:15:19.388Z,27.33
2023-03-21T03:16:29.274Z,24.20
2023-03-21T03:17:45.989Z,26.50
2023-03-21T03:18:56.464Z,23.30
2023-03-21T03:20:16.970Z,26.10
2023-03-21T03:21:25.949Z,27.77
2023-03-21T03:22:39.244Z,23.27
2023-03-21T03:23:48.989Z,25.38
2023-03-21T03:24:59.602Z,22.60
2023-03-21T03:26:10.794Z,27.50
2023-03-21T03:27:18.520Z,26.48
2023-03-21T03:28:27.298Z,21.98
2023-03-21T03:29:33.744Z,26.20
2023-03-21T03:30:46.628Z,22.40
2023-03-21T03:31:59.498Z,27.27
2023-03-21T03:33:07.148Z,26.45
2023-03-21T03:34:14.180Z,24.75
2023-03-21T03:35:20.897Z,24.85
2023-03-21T03:36:32.851Z,23.63
2023-03-21T03:37:39.392Z,25.35
2023-03-21T03:38:47.375Z,24.48
2023-03-21T03:39:56.500Z,19.75
2023-03-21T03:41:06.643Z,24.75
2023-03-21T03:42:27.517Z,24.97
2023-03-21T03:43:38.595Z,24.15
2023-03-21T03:44:42.841Z,22.38
2023-03-21T03:45:51.363Z,24.15
2023-03-21T03:47:01.338Z,21.35
2023-03-21T03:48:13.450Z,27.77
2023-03-21T03:49:21.842Z,24.58
2023-03-21T03:50:30.836Z,24.58
2023-03-21T03:51:39.973Z,24.27
2023-03-21T03:52:56.048Z,25.58
2023-03-21T03:54:07.714Z,22.57
2023-03-21T03:55:15.221Z,25.98
2023-03-21T03:56:19.120Z,25.30
2023-03-21T03:57:23.237Z,25.15
2023-03-21T03:58:39.434Z,27.38
2023-03-21T03:59:48.637Z,26.03
2023-03-21T04:00:53.155Z,22.65
2023-03-21T04:01:56.801Z,22.70
2023-03-21T04:03:01.296Z,25.42
2023-03-21T04:04:12.975Z,23.98
2023-03-21T04:05:17.607Z,26.27
2023-03-21T04:06:21.349Z,24.48
2023-03-21T04:07:24.956Z,25.88
2023-03-21T04:08:28.679Z,23.27
2023-03-21T04:09:43.571Z,25.65
2023-03-21T04:10:48.080Z,24.80
2023-03-21T04:11:51.914Z,26.92
2023-03-21T04:12:55.518Z,26.02
2023-03-21T04:13:59.159Z,25.15
2023-03-21T04:15:10.057Z,22.83
2023-03-21T04:16:14.595Z,22.77
2023-03-21T04:17:18.892Z,23.85
2023-03-21T04:18:22.792Z,23.88
2023-03-21T04:19:27.170Z,23.35
2023-03-21T04:20:37.091Z,24.40
2023-03-21T04:21:41.145Z,25.03
2023-03-21T04:22:45.000Z,22.73
2023-03-21T04:23:48.770Z,26.48
2023-03-21T04:24:54.024Z,24.50
2023-03-21T04:25:57.740Z,25.88
2023-03-21T04:27:01.452Z,26.53
2023-03-21T04:28:05.538Z,25.10
2023-03-21T04:29:09.144Z,22.83
2023-03-21T04:30:13.636Z,22.80
2023-03-21T04:31:25.619Z,25.90
2023-03-21T04:32:29.749Z,25.13
2023-03-21T04:33:33.446Z,28.15
2023-03-21T04:34:37.167Z,26.25
2023-03-21T04:35:40.815Z,26.00
2023-03-21T04:36:44.639Z,23.17
2023-03-21T04:37:48.350Z,23.10
2023-03-21T04:38:52.263Z,24.13
2023-03-21T04:39:57.534Z,22.40
2023-03-21T04:41:01.972Z,25.45
2023-03-21T04:42:06.352Z,23.83
2023-03-21T04:43:10.047Z,30.03
2023-03-21T04:44:15.509Z,23.90
2023-03-21T04:45:19.356Z,25.38
2023-03-21T04:46:23.136Z,25.77
2023-03-21T04:47:26.945Z,23.98
2023-03-21T04:48:30.549Z,23.80
2023-03-21T04:49:34.362Z,25.85
2023-03-21T04:50:38.259Z,24.58
2023-03-21T04:51:42.488Z,26.35
2023-03-21T04:52:46.172Z,23.10
2023-03-21T04:53:49.813Z,24.97
2023-03-21T04:54:53.532Z,23.50
2023-03-21T04:55:58.785Z,23.50
2023-03-21T04:57:02.454Z,27.70
2023-03-21T04:58:06.266Z,27.58
2023-03-21T04:59:13.040Z,25.80
2023-03-21T05:00:17.414Z,25.00
2023-03-21T05:01:21.108Z,23.83
2023-03-21T05:02:24.876Z,25.38
2023-03-21T05:03:28.628Z,22.75
2023-03-21T05:04:32.662Z,23.67
2023-03-21T05:05:37.184Z,22.88
2023-03-21T05:06:41.311Z,23.80
2023-03-21T05:07:44.925Z,25.33
2023-03-21T05:08:48.655Z,24.17
2023-03-21T05:09:52.535Z,24.37
2023-03-21T05:10:57.822Z,22.27
2023-03-21T05:12:01.698Z,21.80
2023-03-21T05:13:05.475Z,24.52
2023-03-21T05:14:10.992Z,23.10
2023-03-21T05:15:14.757Z,21.67
2023-03-21T05:16:18.596Z,22.33
2023-03-21T05:17:22.374Z,24.58
2023-03-21T05:18:26.089Z,22.20
2023-03-21T05:19:31.591Z,23.25
2023-03-21T05:20:35.284Z,20.17
2023-03-21T05:21:38.956Z,23.17
2023-03-21T05:22:42.683Z,24.23
2023-03-21T05:23:46.359Z,26.52
2023-03-21T05:24:50.055Z,22.58
2023-03-21T05:25:53.746Z,23.27
2023-03-21T05:27:01.234Z,21.83
2023-03-21T05:28:06.060Z,22.10
2023-03-21T05:29:10.812Z,22.17
2023-03-21T05:30:16.714Z,21.73
2023-03-21T05:31:21.049Z,24.27
2023-03-21T05:32:24.772Z,22.63
2023-03-21T05:33:28.389Z,25.80
2023-03-21T05:34:31.986Z,24.33
2023-03-21T05:35:35.956Z,23.83
2023-03-21T05:36:39.849Z,22.97
2023-03-21T05:37:43.606Z,21.73
2023-03-21T05:38:47.275Z,21.67
2023-03-21T05:39:50.988Z,20.90
2023-03-21T05:40:55.679Z,21.30
2023-03-21T05:42:00.942Z,24.67
2023-03-21T05:43:04.634Z,24.50
2023-03-21T05:44:08.345Z,21.10
2023-03-21T05:45:12.743Z,21.50
2023-03-21T05:46:16.484Z,22.25
2023-03-21T05:47:20.643Z,24.97
2023-03-21T05:48:24.304Z,24.08
2023-03-21T05:49:27.964Z,24.00
2023-03-21T05:50:31.696Z,20.98
2023-03-21T05:51:35.401Z,24.38
2023-03-21T05:52:38.978Z,21.90
2023-03-21T05:53:42.673Z,22.40
2023-03-21T05:54:46.515Z,23.10
2023-03-21T05:55:50.345Z,24.60
2023-03-21T05:56:54.088Z,26.98
2023-03-21T05:57:59.371Z,28.03
2023-03-21T05:59:03.073Z,23.73
2023-03-21T06:00:08.447Z,20.92
2023-03-21T06:01:12.196Z,26.15
2023-03-21T06:02:15.980Z,24.25
2023-03-21T06:03:27.528Z,22.93
2023-03-21T06:04:31.327Z,21.38
2023-03-21T06:05:35.268Z,25.63
2023-03-21T06:06:39.080Z,24.52
2023-03-21T06:07:42.868Z,22.80
2023-03-21T06:08:46.529Z,25.43
2023-03-21T06:09:50.224Z,25.15
2023-03-21T06:10:53.892Z,21.88
2023-03-21T06:11:58.454Z,22.13
2023-03-21T06:13:03.827Z,26.88
2023-03-21T06:14:07.501Z,22.47
2023-03-21T06:15:12.327Z,24.20
2023-03-21T06:16:15.960Z,22.98
2023-03-21T06:17:19.574Z,23.17
2023-03-21T06:18:23.314Z,22.92
2023-03-21T06:19:26.967Z,23.53
2023-03-21T06:20:30.689Z,22.75
2023-03-21T06:21:34.573Z,25.17
2023-03-21T06:22:38.564Z,22.38
2023-03-21T06:23:42.239Z,23.58
2023-03-21T06:24:45.943Z,25.67
2023-03-21T06:25:50.205Z,24.27
2023-03-21T06:26:53.852Z,23.67
2023-03-21T06:27:57.478Z,22.60
2023-03-21T06:29:02.919Z,19.73
2023-03-21T06:30:07.692Z,22.40
2023-03-21T06:31:11.424Z,23.23
2023-03-21T06:32:15.155Z,23.00
2023-03-21T06:33:18.755Z,23.55
2023-03-21T06:34:22.356Z,24.30
2023-03-21T06:35:26.011Z,25.57
2023-03-21T06:36:29.660Z,19.85
2023-03-21T06:37:33.412Z,19.25
2023-03-21T06:38:37.081Z,23.75
2023-03-21T06:39:40.798Z,25.70
2023-03-21T06:40:46.075Z,24.27
2023-03-21T06:41:49.784Z,24.48
2023-03-21T06:42:53.495Z,23.80
2023-03-21T06:43:57.125Z,23.05
2023-03-21T06:45:02.603Z,24.58
2023-03-21T06:46:06.850Z,21.73
2023-03-21T06:47:10.550Z,20.30
2023-03-21T06:48:14.297Z,22.75
2023-03-21T06:49:18.268Z,24.25
2023-03-21T06:50:21.899Z,26.08
2023-03-21T06:51:25.595Z,26.30
2023-03-21T06:52:29.224Z,22.40
2023-03-21T06:53:33.568Z,23.65
2023-03-21T06:54:38.345Z,24.55
2023-03-21T06:55:42.045Z,21.52
2023-03-21T06:56:45.978Z,23.30
2023-03-21T06:57:49.627Z,22.83
2023-03-21T06:58:53.287Z,23.00
2023-03-21T06:59:57.025Z,22.17
2023-03-21T07:01:03.104Z,27.15
2023-03-21T07:02:06.920Z,21.40
2023-03-21T07:03:10.610Z,25.02
2023-03-21T07:04:14.238Z,21.10
2023-03-21T07:05:18.465Z,27.08
2023-03-21T07:06:22.112Z,23.90
2023-03-21T07:07:26.986Z,21.77
2023-03-21T07:08:30.594Z,24.52
2023-03-21T07:09:34.297Z,23.05
2023-03-21T07:10:40.441Z,21.42
2023-03-21T07:11:44.242Z,25.23
2023-03-21T07:12:47.940Z,23.07
2023-03-21T07:13:52.178Z,24.58
2023-03-21T07:14:55.940Z,26.38
2023-03-21T07:16:01.244Z,25.92
2023-03-21T07:17:04.913Z,21.73
2023-03-21T07:18:10.098Z,21.87
2023-03-21T07:19:13.732Z,21.58
2023-03-21T07:20:17.718Z,25.90
2023-03-21T07:21:21.493Z,22.25
2023-03-21T07:22:25.184Z,22.60
2023-03-21T07:23:29.378Z,21.33
2023-03-21T07:24:33.022Z,25.95
2023-03-21T07:25:36.860Z,27.45
2023-03-21T07:26:40.845Z,22.33
2023-03-21T07:27:44.662Z,20.70
2023-03-21T07:28:48.353Z,24.17
2023-03-21T07:29:52.017Z,23.17
2023-03-21T07:30:57.038Z,24.52
2023-03-21T07:32:02.345Z,25.52
2023-03-21T07:33:06.571Z,25.52
2023-03-21T07:34:10.202Z,22.13
2023-03-21T07:35:15.650Z,22.73
2023-03-21T07:36:19.412Z,25.55
2023-03-21T07:37:23.411Z,24.60
2023-03-21T07:38:28.070Z,21.10
2023-03-21T07:39:31.735Z,23.90
2023-03-21T07:40:35.607Z,25.35
2023-03-21T07:41:39.371Z,27.35
2023-03-21T07:42:43.438Z,23.98
2023-03-21T07:43:47.139Z,20.90
2023-03-21T07:44:50.773Z,22.77
2023-03-21T07:45:58.378Z,23.42
2023-03-21T07:47:03.861Z,23.38
2023-03-21T07:48:07.851Z,24.38
2023-03-21T07:49:11.528Z,22.42
2023-03-21T07:50:15.686Z,25.97
2023-03-21T07:51:19.408Z,27.90
2023-03-21T07:52:23.006Z,23.63
2023-03-21T07:53:26.672Z,22.95
2023-03-21T07:54:30.432Z,23.17
2023-03-21T07:55:34.094Z,21.70
2023-03-21T07:56:37.864Z,23.23
2023-03-21T07:57:41.692Z,26.58
2023-03-21T07:58:45.450Z,22.05
2023-03-21T07:59:49.141Z,23.30
2023-03-21T08:00:53.374Z,23.27
2023-03-21T08:01:57.028Z,22.98
2023-03-21T08:03:02.501Z,27.15
2023-03-21T08:04:06.734Z,22.90
2023-03-21T08:05:10.835Z,28.92
2023-03-21T08:06:14.494Z,29.00
2023-03-21T08:07:18.066Z,26.88
2023-03-21T08:08:21.987Z,23.95
2023-03-21T08:09:25.607Z,24.13
2023-03-21T08:10:29.461Z,24.83
2023-03-21T08:11:33.205Z,26.30
2023-03-21T08:12:36.881Z,23.13
2023-03-21T08:13:40.594Z,30.52
2023-03-21T08:14:44.447Z,27.77
2023-03-21T08:15:48.328Z,24.80
2023-03-21T08:16:52.190Z,22.60
2023-03-21T08:17:55.932Z,25.33
2023-03-21T08:19:01.217Z,23.00
2023-03-21T08:20:05.465Z,23.65
2023-03-21T08:21:09.758Z,23.75
2023-03-21T08:22:13.426Z,22.40
2023-03-21T08:23:17.092Z,22.92
2023-03-21T08:24:21.179Z,23.73
2023-03-21T08:25:24.814Z,21.58
2023-03-21T08:26:28.493Z,24.55
2023-03-21T08:27:32.232Z,23.23
2023-03-21T08:28:35.847Z,21.98
2023-03-21T08:29:39.613Z,24.30
2023-03-21T08:30:43.309Z,22.17
2023-03-21T08:31:46.921Z,22.70
2023-03-21T08:32:50.869Z,22.23
2023-03-21T08:33:54.636Z,21.38
2023-03-21T08:35:02.224Z,23.73
2023-03-21T08:36:07.383Z,23.00
2023-03-21T08:37:11.178Z,23.70
2023-03-21T08:38:14.864Z,21.03
2023-03-21T08:39:18.664Z,20.83
2023-03-21T08:40:22.866Z,21.15
2023-03-21T08:41:26.663Z,24.63
2023-03-21T08:42:30.362Z,24.95
2023-03-21T08:43:34.011Z,21.43
2023-03-21T08:44:37.793Z,21.73
2023-03-21T08:45:41.521Z,21.98
2023-03-21T08:46:45.222Z,22.30
2023-03-21T08:47:49.101Z,27.30
2023-03-21T08:48:52.785Z,20.07
2023-03-21T08:49:58.688Z,19.88
2023-03-21T08:51:04.498Z,18.90
2023-03-21T08:52:08.167Z,22.40
2023-03-21T08:53:11.960Z,20.25
2023-03-21T08:54:21.392Z,20.73
2023-03-21T08:55:25.154Z,20.70
2023-03-21T08:56:28.889Z,22.70
2023-03-21T08:57:32.788Z,22.48
2023-03-21T08:58:39.581Z,22.40
2023-03-21T08:59:47.926Z,20.90
2023-03-21T09:00:51.766Z,21.13
2023-03-21T09:01:55.515Z,18.88
2023-03-21T09:02:59.319Z,21.20
2023-03-21T09:04:02.998Z,18.92
2023-03-21T09:05:07.280Z,19.70
2023-03-21T09:06:14.609Z,21.48
2023-03-21T09:07:18.347Z,22.92
2023-03-21T09:08:22.090Z,19.58
2023-03-21T09:09:25.829Z,21.00
2023-03-21T09:10:30.210Z,18.43
2023-03-21T09:11:34.024Z,23.33
2023-03-21T09:12:37.899Z,20.38
2023-03-21T09:13:41.625Z,18.80
2023-03-21T09:14:45.459Z,21.70
2023-03-21T09:15:49.277Z,20.07
2023-03-21T09:16:53.004Z,22.35
2023-03-21T09:17:56.908Z,18.92
2023-03-21T09:19:01.164Z,20.13
2023-03-21T09:20:05.336Z,19.85
2023-03-21T09:21:12.835Z,20.13
2023-03-21T09:22:16.663Z,20.70
2023-03-21T09:23:20.291Z,21.15
2023-03-21T09:24:24.114Z,20.15
2023-03-21T09:25:27.836Z,20.60
2023-03-21T09:26:31.536Z,19.47
2023-03-21T09:27:35.517Z,20.92
2023-03-21T09:28:39.357Z,19.95
2023-03-21T09:29:43.138Z,21.23
2023-03-21T09:30:46.812Z,17.42
2023-03-21T09:31:50.544Z,21.70
2023-03-21T09:32:54.378Z,22.58
2023-03-21T09:33:58.502Z,25.35
2023-03-21T09:35:02.242Z,18.85
2023-03-21T09:36:06.466Z,21.70
2023-03-21T09:37:11.947Z,20.17
2023-03-21T09:38:15.633Z,20.80
2023-03-21T09:39:19.315Z,21.30
2023-03-21T09:40:32.112Z,19.98
2023-03-21T09:41:48.720Z,20.75
2023-03-21T09:43:03.234Z,20.00
2023-03-21T09:44:24.120Z,20.52
2023-03-21T09:45:37.209Z,23.73
2023-03-21T09:46:46.747Z,22.17
2023-03-21T09:47:51.486Z,19.17
2023-03-21T09:49:00.582Z,18.97
2023-03-21T09:50:14.755Z,18.65
2023-03-21T09:51:22.073Z,21.73
2023-03-21T09:52:34.326Z,20.52
2023-03-21T09:53:42.747Z,20.42
2023-03-21T09:54:46.618Z,19.43
2023-03-21T09:55:50.659Z,17.85
2023-03-21T09:56:56.415Z,16.05
2023-03-21T09:58:07.623Z,18.13
2023-03-21T09:59:22.060Z,19.05
2023-03-21T10:00:31.665Z,18.20
2023-03-21T10:01:37.773Z,23.55
2023-03-21T10:02:43.674Z,18.48
2023-03-21T10:03:47.405Z,18.13
2023-03-21T10:04:51.151Z,19.65
2023-03-21T10:05:56.158Z,18.70
2023-03-21T10:07:03.021Z,18.20
2023-03-21T10:08:18.360Z,19.38
2023-03-21T10:09:23.880Z,19.00
2023-03-21T10:10:31.942Z,19.42
2023-03-21T10:11:44.285Z,20.03
2023-03-21T10:12:51.244Z,20.65
2023-03-21T10:13:57.033Z,21.67
2023-03-21T10:15:03.030Z,18.15
2023-03-21T10:16:15.397Z,21.20
2023-03-21T10:17:27.698Z,19.90
2023-03-21T10:18:32.729Z,18.65
2023-03-21T10:19:36.532Z,20.00
2023-03-21T10:20:42.770Z,20.42
2023-03-21T10:22:00.932Z,19.27
2023-03-21T10:23:07.994Z,22.37
2023-03-21T10:24:17.312Z,20.33
2023-03-21T10:25:23.121Z,18.42
2023-03-21T10:26:29.512Z,24.95
2023-03-21T10:27:34.150Z,25.00
2023-03-21T10:28:52.470Z,22.07
2023-03-21T10:29:57.002Z,18.85
2023-03-21T10:31:03.644Z,21.13
2023-03-21T10:32:10.144Z,21.25
2023-03-21T10:33:18.462Z,20.83
2023-03-21T10:34:29.285Z,20.33
2023-03-21T10:35:34.832Z,21.23
2023-03-21T10:36:41.635Z,17.48
2023-03-21T10:37:45.548Z,21.70
2023-03-21T10:38:52.248Z,21.25
2023-03-21T10:39:57.808Z,21.97
2023-03-21T10:41:01.663Z,21.50
2023-03-21T10:42:05.840Z,18.73
2023-03-21T10:43:34.544Z,20.40
2023-03-21T10:44:38.351Z,18.85
2023-03-21T10:45:42.086Z,21.70
2023-03-21T10:46:53.211Z,19.95
2023-03-21T10:47:57.228Z,21.00
2023-03-21T10:49:01.070Z,21.40
2023-03-21T10:50:08.982Z,21.95
2023-03-21T10:51:20.033Z,20.03
2023-03-21T10:52:28.219Z,21.70
2023-03-21T10:53:35.825Z,19.23
2023-03-21T10:54:39.740Z,20.77
2023-03-21T10:55:47.577Z,18.30
2023-03-21T10:56:58.639Z,24.47
2023-03-21T10:58:06.587Z,25.00
2023-03-21T10:59:15.451Z,20.33
2023-03-21T11:00:22.933Z,23.23
2023-03-21T11:01:30.894Z,22.13
2023-03-21T11:02:37.799Z,19.57
2023-03-21T11:03:44.380Z,20.42
2023-03-21T11:04:48.634Z,20.95
2023-03-21T11:05:56.784Z,20.52
2023-03-21T11:07:03.796Z,20.77
2023-03-21T11:08:13.131Z,20.90
2023-03-21T11:09:18.585Z,22.00
2023-03-21T11:10:30.279Z,23.13
2023-03-21T11:11:40.444Z,23.08
2023-03-21T11:12:49.009Z,24.65
2023-03-21T11:13:59.112Z,20.60
2023-03-21T11:15:26.386Z,19.42
2023-03-21T11:16:38.478Z,21.25
2023-03-21T11:17:43.265Z,21.08
2023-03-21T11:18:51.432Z,20.15
2023-03-21T11:19:58.426Z,23.43
2023-03-21T11:21:06.188Z,21.02
2023-03-21T11:22:12.206Z,21.20
2023-03-21T11:23:16.145Z,20.67
2023-03-21T11:24:20.841Z,24.23
2023-03-21T11:25:39.262Z,17.93
2023-03-21T11:26:46.512Z,19.77
2023-03-21T11:27:51.256Z,22.00
2023-03-21T11:28:55.946Z,20.13
2023-03-21T11:30:01.614Z,23.83
2023-03-21T11:31:06.808Z,20.50
2023-03-21T11:32:20.536Z,19.90
2023-03-21T11:33:27.041Z,19.85
2023-03-21T11:34:39.896Z,22.90
2023-03-21T11:35:43.605Z,22.83
2023-03-21T11:36:52.392Z,19.80
2023-03-21T11:37:57.326Z,21.80
2023-03-21T11:39:13.164Z,19.55
2023-03-21T11:40:22.608Z,23.85
2023-03-21T11:41:29.949Z,19.38
2023-03-21T11:42:43.650Z,24.17
2023-03-21T11:43:53.648Z,20.48
2023-03-21T11:45:04.100Z,20.33
2023-03-21T11:46:10.113Z,17.80
2023-03-21T11:47:13.801Z,24.25
2023-03-21T11:48:17.532Z,19.17
2023-03-21T11:49:22.412Z,18.40
2023-03-21T11:50:31.998Z,19.85
2023-03-21T11:51:41.962Z,18.52
2023-03-21T11:52:57.094Z,19.80
2023-03-21T11:54:10.063Z,21.20
2023-03-21T11:55:33.174Z,20.23
2023-03-21T11:56:41.397Z,20.70
2023-03-21T11:58:05.263Z,17.88
2023-03-21T11:59:24.185Z,17.15
2023-03-21T12:00:36.553Z,17.40
2023-03-21T12:01:53.213Z,19.77
2023-03-21T12:03:30.691Z,20.27
2023-03-21T12:04:41.543Z,22.70
2023-03-21T12:05:53.367Z,20.38
2023-03-21T12:07:02.639Z,18.43
2023-03-21T12:08:18.554Z,19.60
2023-03-21T12:09:35.830Z,20.95
2023-03-21T12:10:45.955Z,18.25
2023-03-21T12:12:03.810Z,19.75
2023-03-21T12:13:21.724Z,21.63
2023-03-21T12:14:32.154Z,18.83
2023-03-21T12:15:42.067Z,20.05
2023-03-21T12:16:57.495Z,17.25
2023-03-21T12:18:11.602Z,18.80
2023-03-21T12:19:33.828Z,20.37
2023-03-21T12:20:42.300Z,17.98
2023-03-21T12:21:55.091Z,19.30
2023-03-21T12:23:14.088Z,20.73
2023-03-21T12:24:21.681Z,17.65
2023-03-21T12:25:30.030Z,15.63
2023-03-21T12:26:38.493Z,17.52
2023-03-21T12:27:49.592Z,19.80
2023-03-21T12:29:11.745Z,18.77
2023-03-21T12:30:32.740Z,17.80
2023-03-21T12:31:49.807Z,16.43
2023-03-21T12:33:12.416Z,23.27
2023-03-21T12:34:32.299Z,18.65
2023-03-21T12:36:05.432Z,20.77
2023-03-21T12:37:18.361Z,18.05
2023-03-21T12:38:26.126Z,15.30
2023-03-21T12:39:31.755Z,20.30
2023-03-21T12:40:50.572Z,19.10
2023-03-21T12:42:09.306Z,16.77
2023-03-21T12:43:27.192Z,17.85
2023-03-21T12:44:35.913Z,17.77
2023-03-21T12:45:47.261Z,19.88
2023-03-21T12:46:58.073Z,18.38
2023-03-21T12:48:14.459Z,17.13
2023-03-21T12:49:24.409Z,18.77
2023-03-21T12:50:32.505Z,17.17
2023-03-21T12:51:41.263Z,21.05
2023-03-21T12:52:49.572Z,17.33
2023-03-21T12:53:59.822Z,15.52
2023-03-21T12:55:08.697Z,17.17
2023-03-21T12:56:17.706Z,18.00
2023-03-21T12:57:26.101Z,17.23
2023-03-21T12:58:35.072Z,18.40
2023-03-21T12:59:47.499Z,16.48
2023-03-21T13:00:54.423Z,20.13
2023-03-21T13:02:01.425Z,18.30
2023-03-21T13:03:11.406Z,18.77
2023-03-21T13:04:37.815Z,15.48
2023-03-21T13:05:46.234Z,18.42
2023-03-21T13:06:52.981Z,18.85
2023-03-21T13:08:01.444Z,15.90
2023-03-21T13:09:16.050Z,20.40
2023-03-21T13:10:22.482Z,16.77
2023-03-21T13:11:29.923Z,16.92
2023-03-21T13:12:44.767Z,20.85
2023-03-21T13:13:55.246Z,17.43
2023-03-21T13:15:18.369Z,16.55
2023-03-21T13:16:30.943Z,18.90
2023-03-21T13:17:42.481Z,18.45
2023-03-21T13:19:02.284Z,18.13
2023-03-21T13:20:16.743Z,15.97
2023-03-21T13:21:28.511Z,19.23
2023-03-21T13:22:32.979Z,18.17
2023-03-21T13:23:38.446Z,17.45
2023-03-21T13:24:44.041Z,16.77
2023-03-21T13:25:49.493Z,18.63
2023-03-21T13:27:03.369Z,19.35
2023-03-21T13:28:07.480Z,19.33
2023-03-21T13:29:25.306Z,21.27
2023-03-21T13:30:31.715Z,17.77
2023-03-21T13:31:50.685Z,15.70
2023-03-21T13:33:06.205Z,17.45
2023-03-21T13:34:11.073Z,16.65
2023-03-21T13:35:17.740Z,18.10
2023-03-21T13:36:26.771Z,18.55
2023-03-21T13:37:33.700Z,19.40
2023-03-21T13:38:38.073Z,21.73
2023-03-21T13:39:46.264Z,18.70
2023-03-21T13:40:51.999Z,19.25
2023-03-21T13:41:56.374Z,17.70
2023-03-21T13:43:01.105Z,20.17
2023-03-21T13:44:17.329Z,18.45
2023-03-21T13:45:35.315Z,18.10
2023-03-21T13:46:53.733Z,16.25
2023-03-21T13:47:59.261Z,21.17
2023-03-21T13:49:14.174Z,18.67
2023-03-21T13:50:30.112Z,20.48
2023-03-21T13:51:44.135Z,18.48
2023-03-21T13:53:19.859Z,17.05
2023-03-21T13:54:33.847Z,21.15
2023-03-21T13:55:42.435Z,18.90
2023-03-21T13:56:54.744Z,18.40
2023-03-21T13:57:58.483Z,19.02
2023-03-21T13:59:03.316Z,17.83
2023-03-21T14:00:20.425Z,19.90
2023-03-21T14:01:31.756Z,19.27
2023-03-21T14:02:37.202Z,20.13
2023-03-21T14:03:45.463Z,17.95
2023-03-21T14:05:04.466Z,16.17
2023-03-21T14:06:11.233Z,20.08
2023-03-21T14:07:20.632Z,18.13
2023-03-21T14:08:36.767Z,18.52
2023-03-21T14:09:44.927Z,20.13
2023-03-21T14:10:54.615Z,17.52
2023-03-21T14:12:07.117Z,19.95
2023-03-21T14:13:17.068Z,18.40
2023-03-21T14:14:22.866Z,18.42
2023-03-21T14:15:28.141Z,19.10
2023-03-21T14:16:34.457Z,19.95
2023-03-21T14:17:38.184Z,20.65
2023-03-21T14:18:59.797Z,23.00
2023-03-21T14:20:11.366Z,23.23
2023-03-21T14:21:23.537Z,21.50
2023-03-21T14:22:28.100Z,25.77
2023-03-21T14:23:31.856Z,19.10
2023-03-21T14:24:35.889Z,19.07
2023-03-21T14:25:47.551Z,22.83
2023-03-21T14:26:54.341Z,17.08
2023-03-21T14:28:00.914Z,21.25
2023-03-21T14:29:09.576Z,20.17
2023-03-21T14:30:25.259Z,16.90
2023-03-21T14:31:29.143Z,17.15
2023-03-21T14:32:36.440Z,18.88
2023-03-21T14:33:41.866Z,19.98